Airbus 320-232 from SmartLynx at Eindhoven.
 Regi:ES-SAM  LARGER
 MSN Year:1896 2002
 Date of picture:2015-04-17 11:10
 Discription:Flight in behalf of Corendon.
 Position:03
 Flight: DEP AYT XC40 Alanya Havalimani Turkey
 Logs: 2015-04-17 Eindhoven (EIN) Antalya (AYT) XC40 08:50 09:06 12:30 Landed 12:25
5110BF -------- ES-SAM A320 ----- ----- 17/04/2015 11:13:38 sbs-1 Log from Kampenhout
2015/04/17 11:59 -------- -------- - ES-SAM a/c registered in Estonia A320
 Notam EHEH M0773/15 Military 04/17/2015 0709 05/05/2015 0500 ONLY 3 GEN AVIATION AIRCRAFT CAN BE PARKED AT EINDHOVEN AIRPORT. AS A CONSEQUENCE PARKING APPROVAL FROM EINDHOVEN AIRPORT AUTHORITIES IS REQUIRED AN AIRPORT SLOT, TO BE REQUESTED AT AIRPORT COORDINATION NETHERLANDS, IS STILL REQUIRED.
 Metar SA 17/04/2015 10:55 METAR EHEH 171055Z AUTO 02012KT 9999 FEW031 OVC160 11/03 Q1019 BLU 04012KT CAVOK=
 Hits: 17 ID: 2442

Debriefing: Photographed movements of Airports in NW-Europe.
The images of our site attendant is in authorisation from Queen of Sky.
Copying of images of this site have been prohibited in which manner without the authorisation of the photographer.
In behalf of the crew :"Thank you visiting us" - Contact
Factsheets Airbus, 320-232, SmartLynx, made by De Plane! © 2006 - 2022 All rights reserved


.